sensor_id;sensor_type;location;lat;lon;timestamp;temperature;humidity
72576;DHT22;60613;48.658;2.328;2022-09-25T00:01:12;20.40;46.50
72576;DHT22;60613;48.658;2.328;2022-09-25T00:03:39;20.40;46.50
72576;DHT22;60613;48.658;2.328;2022-09-25T00:06:10;20.40;46.50
72576;DHT22;60613;48.658;2.328;2022-09-25T00:08:36;20.40;46.50
72576;DHT22;60613;48.658;2.328;2022-09-25T00:11:08;20.30;46.50
72576;DHT22;60613;48.658;2.328;2022-09-25T00:13:35;20.30;47.60
72576;DHT22;60613;48.658;2.328;2022-09-25T00:16:01;20.40;46.50
72576;DHT22;60613;48.658;2.328;2022-09-25T00:18:27;20.40;46.50
72576;DHT22;60613;48.658;2.328;2022-09-25T00:21:13;20.40;46.50
72576;DHT22;60613;48.658;2.328;2022-09-25T00:23:43;20.40;46.40
72576;DHT22;60613;48.658;2.328;2022-09-25T00:26:13;20.40;46.50
72576;DHT22;60613;48.658;2.328;2022-09-25T00:28:40;20.40;46.50
72576;DHT22;60613;48.658;2.328;2022-09-25T00:31:07;20.40;46.50
72576;DHT22;60613;48.658;2.328;2022-09-25T00:33:34;20.40;46.50
72576;DHT22;60613;48.658;2.328;2022-09-25T00:36:05;20.30;46.40
72576;DHT22;60613;48.658;2.328;2022-09-25T00:38:32;20.30;46.50
72576;DHT22;60613;48.658;2.328;2022-09-25T00:40:59;20.30;46.50
72576;DHT22;60613;48.658;2.328;2022-09-25T00:43:39;20.30;46.50
72576;DHT22;60613;48.658;2.328;2022-09-25T00:46:26;20.30;47.60
72576;DHT22;60613;48.658;2.328;2022-09-25T00:51:45;20.30;46.50
72576;DHT22;60613;48.658;2.328;2022-09-25T00:54:16;20.30;46.50
72576;DHT22;60613;48.658;2.328;2022-09-25T00:56:45;20.30;46.40
72576;DHT22;60613;48.658;2.328;2022-09-25T00:59:16;20.30;46.50
72576;DHT22;60613;48.658;2.328;2022-09-25T01:01:43;20.30;46.50
72576;DHT22;60613;48.658;2.328;2022-09-25T01:04:09;20.30;46.50
72576;DHT22;60613;48.658;2.328;2022-09-25T01:06:37;20.30;46.50
72576;DHT22;60613;48.658;2.328;2022-09-25T01:09:03;20.30;46.50
72576;DHT22;60613;48.658;2.328;2022-09-25T01:11:29;20.30;46.60
72576;DHT22;60613;48.658;2.328;2022-09-25T01:13:57;20.30;46.60
72576;DHT22;60613;48.658;2.328;2022-09-25T01:19:52;20.30;46.50
72576;DHT22;60613;48.658;2.328;2022-09-25T01:25:01;20.30;46.50
72576;DHT22;60613;48.658;2.328;2022-09-25T01:30:19;20.30;46.50
72576;DHT22;60613;48.658;2.328;2022-09-25T01:33:21;20.30;46.50
72576;DHT22;60613;48.658;2.328;2022-09-25T01:38:39;20.30;46.50
72576;DHT22;60613;48.658;2.328;2022-09-25T01:46:28;20.30;46.50
72576;DHT22;60613;48.658;2.328;2022-09-25T01:49:08;20.30;46.50
72576;DHT22;60613;48.658;2.328;2022-09-25T01:51:39;20.30;46.50
72576;DHT22;60613;48.658;2.328;2022-09-25T01:54:12;20.30;46.50
72576;DHT22;60613;48.658;2.328;2022-09-25T01:56:52;20.30;46.50
72576;DHT22;60613;48.658;2.328;2022-09-25T02:02:10;20.30;46.50
72576;DHT22;60613;48.658;2.328;2022-09-25T02:04:42;20.30;47.70
72576;DHT22;60613;48.658;2.328;2022-09-25T02:07:16;20.30;46.50
72576;DHT22;60613;48.658;2.328;2022-09-25T02:09:50;20.30;46.50
72576;DHT22;60613;48.658;2.328;2022-09-25T02:12:25;20.30;46.50
72576;DHT22;60613;48.658;2.328;2022-09-25T02:15:08;20.30;46.50
72576;DHT22;60613;48.658;2.328;2022-09-25T02:17:41;20.30;46.50
72576;DHT22;60613;48.658;2.328;2022-09-25T02:20:30;20.30;46.50
72576;DHT22;60613;48.658;2.328;2022-09-25T02:23:12;20.30;46.50
72576;DHT22;60613;48.658;2.328;2022-09-25T02:25:51;20.30;46.50
72576;DHT22;60613;48.658;2.328;2022-09-25T02:28:21;20.20;46.50
72576;DHT22;60613;48.658;2.328;2022-09-25T02:30:48;20.30;46.50
72576;DHT22;60613;48.658;2.328;2022-09-25T02:33:16;20.30;46.50
72576;DHT22;60613;48.658;2.328;2022-09-25T02:35:41;20.20;46.40
72576;DHT22;60613;48.658;2.328;2022-09-25T02:38:07;20.30;46.60
72576;DHT22;60613;48.658;2.328;2022-09-25T02:40:40;20.20;47.70
72576;DHT22;60613;48.658;2.328;2022-09-25T02:45:38;20.30;46.70
72576;DHT22;60613;48.658;2.328;2022-09-25T02:48:22;20.30;46.60
72576;DHT22;60613;48.658;2.328;2022-09-25T02:53:43;20.20;46.50
72576;DHT22;60613;48.658;2.328;2022-09-25T02:56:17;20.30;46.60
72576;DHT22;60613;48.658;2.328;2022-09-25T02:58:48;20.30;46.50
72576;DHT22;60613;48.658;2.328;2022-09-25T03:01:17;20.30;46.60
72576;DHT22;60613;48.658;2.328;2022-09-25T03:03:46;20.20;46.80
72576;DHT22;60613;48.658;2.328;2022-09-25T03:06:14;20.30;46.60
72576;DHT22;60613;48.658;2.328;2022-09-25T03:08:44;20.30;46.60
72576;DHT22;60613;48.658;2.328;2022-09-25T03:11:13;20.20;46.60
72576;DHT22;60613;48.658;2.328;2022-09-25T03:13:40;20.20;46.70
72576;DHT22;60613;48.658;2.328;2022-09-25T03:18:37;20.30;46.60
72576;DHT22;60613;48.658;2.328;2022-09-25T03:21:04;20.20;46.60
72576;DHT22;60613;48.658;2.328;2022-09-25T03:23:30;20.30;46.60
72576;DHT22;60613;48.658;2.328;2022-09-25T03:25:57;20.20;46.60
72576;DHT22;60613;48.658;2.328;2022-09-25T03:28:23;20.20;46.60
72576;DHT22;60613;48.658;2.328;2022-09-25T03:31:15;20.20;46.60
72576;DHT22;60613;48.658;2.328;2022-09-25T03:33:42;20.30;46.60
72576;DHT22;60613;48.658;2.328;2022-09-25T03:36:15;20.20;46.60
72576;DHT22;60613;48.658;2.328;2022-09-25T03:38:42;20.20;46.60
72576;DHT22;60613;48.658;2.328;2022-09-25T03:41:09;20.20;46.60
72576;DHT22;60613;48.658;2.328;2022-09-25T03:43:36;20.20;46.70
72576;DHT22;60613;48.658;2.328;2022-09-25T03:46:03;20.20;46.60
72576;DHT22;60613;48.658;2.328;2022-09-25T03:48:29;20.20;46.60
72576;DHT22;60613;48.658;2.328;2022-09-25T03:50:55;20.20;46.60
72576;DHT22;60613;48.658;2.328;2022-09-25T03:53:21;20.20;46.60
72576;DHT22;60613;48.658;2.328;2022-09-25T03:55:47;20.20;46.60
72576;DHT22;60613;48.658;2.328;2022-09-25T03:58:14;20.20;46.60
72576;DHT22;60613;48.658;2.328;2022-09-25T04:00:40;20.20;46.60
72576;DHT22;60613;48.658;2.328;2022-09-25T04:03:06;20.20;46.60
72576;DHT22;60613;48.658;2.328;2022-09-25T04:05:32;20.20;46.60
72576;DHT22;60613;48.658;2.328;2022-09-25T04:07:59;20.20;46.50
72576;DHT22;60613;48.658;2.328;2022-09-25T04:10:26;20.20;46.60
72576;DHT22;60613;48.658;2.328;2022-09-25T04:12:52;20.20;46.60
72576;DHT22;60613;48.658;2.328;2022-09-25T04:15:19;20.20;46.60
72576;DHT22;60613;48.658;2.328;2022-09-25T04:17:47;20.20;46.60
72576;DHT22;60613;48.658;2.328;2022-09-25T04:20:13;20.20;46.60
72576;DHT22;60613;48.658;2.328;2022-09-25T04:22:39;20.20;46.60
72576;DHT22;60613;48.658;2.328;2022-09-25T04:25:05;20.20;47.80
72576;DHT22;60613;48.658;2.328;2022-09-25T04:27:30;20.20;46.70
72576;DHT22;60613;48.658;2.328;2022-09-25T04:29:57;20.20;46.60
72576;DHT22;60613;48.658;2.328;2022-09-25T04:32:23;20.20;46.60
72576;DHT22;60613;48.658;2.328;2022-09-25T04:35:07;20.20;46.60
72576;DHT22;60613;48.658;2.328;2022-09-25T04:37:33;20.20;46.60
72576;DHT22;60613;48.658;2.328;2022-09-25T04:39:59;20.10;46.60
72576;DHT22;60613;48.658;2.328;2022-09-25T04:42:25;20.20;46.60
72576;DHT22;60613;48.658;2.328;2022-09-25T04:44:52;20.20;46.60
72576;DHT22;60613;48.658;2.328;2022-09-25T04:47:22;20.20;46.70
72576;DHT22;60613;48.658;2.328;2022-09-25T04:49:48;20.10;46.60
72576;DHT22;60613;48.658;2.328;2022-09-25T04:52:15;20.10;46.70
72576;DHT22;60613;48.658;2.328;2022-09-25T04:54:41;20.20;46.70
72576;DHT22;60613;48.658;2.328;2022-09-25T04:57:08;20.20;46.70
72576;DHT22;60613;48.658;2.328;2022-09-25T04:59:34;20.20;46.70
72576;DHT22;60613;48.658;2.328;2022-09-25T05:02:00;20.20;46.70
72576;DHT22;60613;48.658;2.328;2022-09-25T05:04:25;20.20;46.70
72576;DHT22;60613;48.658;2.328;2022-09-25T05:06:51;20.10;46.70
72576;DHT22;60613;48.658;2.328;2022-09-25T05:09:17;20.20;46.80
72576;DHT22;60613;48.658;2.328;2022-09-25T05:11:43;20.10;46.70
72576;DHT22;60613;48.658;2.328;2022-09-25T05:14:10;20.20;46.70
72576;DHT22;60613;48.658;2.328;2022-09-25T05:16:35;20.20;46.60
72576;DHT22;60613;48.658;2.328;2022-09-25T05:19:01;20.20;46.70
72576;DHT22;60613;48.658;2.328;2022-09-25T05:21:26;20.20;46.60
72576;DHT22;60613;48.658;2.328;2022-09-25T05:23:52;20.20;46.70
72576;DHT22;60613;48.658;2.328;2022-09-25T05:26:19;20.20;46.60
72576;DHT22;60613;48.658;2.328;2022-09-25T05:28:48;20.10;46.60
72576;DHT22;60613;48.658;2.328;2022-09-25T05:31:14;20.10;46.70
72576;DHT22;60613;48.658;2.328;2022-09-25T05:33:41;20.10;46.60
72576;DHT22;60613;48.658;2.328;2022-09-25T05:36:08;20.20;46.70
72576;DHT22;60613;48.658;2.328;2022-09-25T05:38:36;20.10;46.60
72576;DHT22;60613;48.658;2.328;2022-09-25T05:41:08;20.10;46.60
72576;DHT22;60613;48.658;2.328;2022-09-25T05:43:37;20.10;46.60
72576;DHT22;60613;48.658;2.328;2022-09-25T05:46:05;20.10;46.60
72576;DHT22;60613;48.658;2.328;2022-09-25T05:48:30;20.10;46.60
72576;DHT22;60613;48.658;2.328;2022-09-25T05:50:56;20.10;46.70
72576;DHT22;60613;48.658;2.328;2022-09-25T05:53:23;20.10;46.60
72576;DHT22;60613;48.658;2.328;2022-09-25T05:55:57;20.10;46.60
72576;DHT22;60613;48.658;2.328;2022-09-25T05:58:24;20.10;46.70
72576;DHT22;60613;48.658;2.328;2022-09-25T06:00:50;20.10;47.80
72576;DHT22;60613;48.658;2.328;2022-09-25T06:03:16;20.10;46.60
72576;DHT22;60613;48.658;2.328;2022-09-25T06:05:42;20.10;46.60
72576;DHT22;60613;48.658;2.328;2022-09-25T06:08:12;20.10;46.60
72576;DHT22;60613;48.658;2.328;2022-09-25T06:10:38;20.10;46.70
72576;DHT22;60613;48.658;2.328;2022-09-25T06:13:04;20.10;46.70
72576;DHT22;60613;48.658;2.328;2022-09-25T06:18:12;20.10;46.50
72576;DHT22;60613;48.658;2.328;2022-09-25T06:20:37;20.10;46.50
72576;DHT22;60613;48.658;2.328;2022-09-25T06:23:03;20.20;46.60
72576;DHT22;60613;48.658;2.328;2022-09-25T06:25:31;20.10;46.60
72576;DHT22;60613;48.658;2.328;2022-09-25T06:28:01;20.10;46.60
72576;DHT22;60613;48.658;2.328;2022-09-25T06:30:29;20.10;46.60
72576;DHT22;60613;48.658;2.328;2022-09-25T06:33:03;20.10;46.60
72576;DHT22;60613;48.658;2.328;2022-09-25T06:35:32;20.10;46.50
72576;DHT22;60613;48.658;2.328;2022-09-25T06:37:59;20.10;46.60
72576;DHT22;60613;48.658;2.328;2022-09-25T06:40:28;20.10;46.50
72576;DHT22;60613;48.658;2.328;2022-09-25T06:43:05;20.10;46.60
72576;DHT22;60613;48.658;2.328;2022-09-25T06:45:33;20.10;46.70
72576;DHT22;60613;48.658;2.328;2022-09-25T06:48:00;20.10;46.70
72576;DHT22;60613;48.658;2.328;2022-09-25T06:50:32;20.10;46.70
72576;DHT22;60613;48.658;2.328;2022-09-25T06:53:00;20.10;46.70
72576;DHT22;60613;48.658;2.328;2022-09-25T06:55:28;20.10;46.70
72576;DHT22;60613;48.658;2.328;2022-09-25T06:57:54;20.10;46.70
72576;DHT22;60613;48.658;2.328;2022-09-25T07:00:20;20.10;46.70
72576;DHT22;60613;48.658;2.328;2022-09-25T07:02:45;20.10;46.60
72576;DHT22;60613;48.658;2.328;2022-09-25T07:05:29;20.10;46.70
72576;DHT22;60613;48.658;2.328;2022-09-25T07:07:55;20.10;46.70
72576;DHT22;60613;48.658;2.328;2022-09-25T07:10:21;20.10;46.70
72576;DHT22;60613;48.658;2.328;2022-09-25T07:12:47;20.10;46.70
72576;DHT22;60613;48.658;2.328;2022-09-25T07:15:13;20.10;46.60
72576;DHT22;60613;48.658;2.328;2022-09-25T07:17:44;20.10;46.60
72576;DHT22;60613;48.658;2.328;2022-09-25T07:20:12;20.10;46.60
72576;DHT22;60613;48.658;2.328;2022-09-25T07:22:40;20.10;46.60
72576;DHT22;60613;48.658;2.328;2022-09-25T07:25:08;20.10;46.60
72576;DHT22;60613;48.658;2.328;2022-09-25T07:27:34;20.10;46.70
72576;DHT22;60613;48.658;2.328;2022-09-25T07:30:00;20.10;46.60
72576;DHT22;60613;48.658;2.328;2022-09-25T07:32:27;20.10;46.70
72576;DHT22;60613;48.658;2.328;2022-09-25T07:34:53;20.10;46.70
72576;DHT22;60613;48.658;2.328;2022-09-25T07:37:19;20.10;46.70
72576;DHT22;60613;48.658;2.328;2022-09-25T07:39:44;20.10;46.70
72576;DHT22;60613;48.658;2.328;2022-09-25T07:42:10;20.00;46.60
72576;DHT22;60613;48.658;2.328;2022-09-25T07:44:36;20.00;46.60
72576;DHT22;60613;48.658;2.328;2022-09-25T07:47:02;20.00;46.60
72576;DHT22;60613;48.658;2.328;2022-09-25T07:49:31;20.10;46.60
72576;DHT22;60613;48.658;2.328;2022-09-25T07:51:57;20.10;46.60
72576;DHT22;60613;48.658;2.328;2022-09-25T07:54:23;20.10;46.60
72576;DHT22;60613;48.658;2.328;2022-09-25T07:56:50;20.10;46.60
72576;DHT22;60613;48.658;2.328;2022-09-25T07:59:15;20.00;46.60
72576;DHT22;60613;48.658;2.328;2022-09-25T08:01:41;20.10;46.60
72576;DHT22;60613;48.658;2.328;2022-09-25T08:04:07;20.10;46.70
72576;DHT22;60613;48.658;2.328;2022-09-25T08:06:35;20.00;46.60
72576;DHT22;60613;48.658;2.328;2022-09-25T08:09:01;20.00;46.60
72576;DHT22;60613;48.658;2.328;2022-09-25T08:11:27;20.10;46.70
72576;DHT22;60613;48.658;2.328;2022-09-25T08:13:53;20.10;46.60
72576;DHT22;60613;48.658;2.328;2022-09-25T08:16:19;20.10;46.70
72576;DHT22;60613;48.658;2.328;2022-09-25T08:18:48;20.10;46.60
72576;DHT22;60613;48.658;2.328;2022-09-25T08:21:18;20.10;46.60
72576;DHT22;60613;48.658;2.328;2022-09-25T08:23:49;20.10;46.50
72576;DHT22;60613;48.658;2.328;2022-09-25T08:26:16;20.10;46.50
72576;DHT22;60613;48.658;2.328;2022-09-25T08:28:42;20.10;46.50
72576;DHT22;60613;48.658;2.328;2022-09-25T08:31:08;20.10;47.60
72576;DHT22;60613;48.658;2.328;2022-09-25T08:33:34;20.10;46.40
72576;DHT22;60613;48.658;2.328;2022-09-25T08:36:03;20.10;46.40
72576;DHT22;60613;48.658;2.328;2022-09-25T08:38:29;20.10;46.30
72576;DHT22;60613;48.658;2.328;2022-09-25T08:43:31;20.10;46.30
72576;DHT22;60613;48.658;2.328;2022-09-25T08:45:59;20.10;46.30
72576;DHT22;60613;48.658;2.328;2022-09-25T08:48:54;20.10;46.30
72576;DHT22;60613;48.658;2.328;2022-09-25T08:51:38;20.10;46.20
72576;DHT22;60613;48.658;2.328;2022-09-25T08:54:05;20.10;46.20
72576;DHT22;60613;48.658;2.328;2022-09-25T08:56:33;20.10;46.20
72576;DHT22;60613;48.658;2.328;2022-09-25T08:59:23;20.10;46.20
72576;DHT22;60613;48.658;2.328;2022-09-25T09:01:54;20.10;46.20
72576;DHT22;60613;48.658;2.328;2022-09-25T09:04:39;20.10;46.10
72576;DHT22;60613;48.658;2.328;2022-09-25T09:07:09;20.10;46.10
72576;DHT22;60613;48.658;2.328;2022-09-25T09:09:50;20.10;46.00
72576;DHT22;60613;48.658;2.328;2022-09-25T09:12:24;20.10;46.10
72576;DHT22;60613;48.658;2.328;2022-09-25T09:14:58;20.10;46.00
72576;DHT22;60613;48.658;2.328;2022-09-25T09:17:38;20.10;46.10
72576;DHT22;60613;48.658;2.328;2022-09-25T09:20:17;20.10;46.00
72576;DHT22;60613;48.658;2.328;2022-09-25T09:22:50;20.10;46.00
72576;DHT22;60613;48.658;2.328;2022-09-25T09:28:32;20.10;46.00
72576;DHT22;60613;48.658;2.328;2022-09-25T09:36:55;20.10;45.90
72576;DHT22;60613;48.658;2.328;2022-09-25T09:42:40;20.20;46.00
72576;DHT22;60613;48.658;2.328;2022-09-25T09:48:24;20.10;46.00
72576;DHT22;60613;48.658;2.328;2022-09-25T09:51:00;20.10;46.00
72576;DHT22;60613;48.658;2.328;2022-09-25T09:53:35;20.20;47.10
72576;DHT22;60613;48.658;2.328;2022-09-25T09:56:14;20.10;45.90
72576;DHT22;60613;48.658;2.328;2022-09-25T09:58:56;20.10;45.90
72576;DHT22;60613;48.658;2.328;2022-09-25T10:01:27;20.10;45.90
72576;DHT22;60613;48.658;2.328;2022-09-25T10:04:22;20.20;46.00
72576;DHT22;60613;48.658;2.328;2022-09-25T10:07:08;20.20;46.00
72576;DHT22;60613;48.658;2.328;2022-09-25T10:09:36;20.20;46.10
72576;DHT22;60613;48.658;2.328;2022-09-25T10:12:06;20.20;46.10
72576;DHT22;60613;48.658;2.328;2022-09-25T10:14:40;20.20;46.00
72576;DHT22;60613;48.658;2.328;2022-09-25T10:17:07;20.20;46.10
72576;DHT22;60613;48.658;2.328;2022-09-25T10:22:17;20.20;46.60
72576;DHT22;60613;48.658;2.328;2022-09-25T10:27:35;20.20;46.00
72576;DHT22;60613;48.658;2.328;2022-09-25T10:33:08;20.20;46.00
72576;DHT22;60613;48.658;2.328;2022-09-25T10:38:13;20.20;46.10
72576;DHT22;60613;48.658;2.328;2022-09-25T10:40:41;20.10;46.10
72576;DHT22;60613;48.658;2.328;2022-09-25T10:43:17;20.10;46.00
72576;DHT22;60613;48.658;2.328;2022-09-25T10:45:46;20.10;46.00
72576;DHT22;60613;48.658;2.328;2022-09-25T10:48:37;20.10;46.00
72576;DHT22;60613;48.658;2.328;2022-09-25T10:51:22;20.20;46.00
72576;DHT22;60613;48.658;2.328;2022-09-25T10:53:55;20.20;46.00
72576;DHT22;60613;48.658;2.328;2022-09-25T10:56:34;20.20;46.00
72576;DHT22;60613;48.658;2.328;2022-09-25T10:59:14;20.20;46.00
72576;DHT22;60613;48.658;2.328;2022-09-25T11:01:41;20.20;46.00
72576;DHT22;60613;48.658;2.328;2022-09-25T11:04:19;20.20;46.00
72576;DHT22;60613;48.658;2.328;2022-09-25T11:06:51;20.20;46.00
72576;DHT22;60613;48.658;2.328;2022-09-25T11:09:22;20.20;46.00
72576;DHT22;60613;48.658;2.328;2022-09-25T11:11:49;20.20;46.00
72576;DHT22;60613;48.658;2.328;2022-09-25T11:14:29;20.20;46.00
72576;DHT22;60613;48.658;2.328;2022-09-25T11:16:58;20.20;45.90
72576;DHT22;60613;48.658;2.328;2022-09-25T11:19:27;20.20;45.90
72576;DHT22;60613;48.658;2.328;2022-09-25T11:21:59;20.20;45.90
72576;DHT22;60613;48.658;2.328;2022-09-25T11:24:40;20.20;46.00
72576;DHT22;60613;48.658;2.328;2022-09-25T11:27:16;20.20;45.90
72576;DHT22;60613;48.658;2.328;2022-09-25T11:30:14;20.20;45.80
72576;DHT22;60613;48.658;2.328;2022-09-25T11:32:49;20.20;45.90
72576;DHT22;60613;48.658;2.328;2022-09-25T11:44:27;20.20;45.80
72576;DHT22;60613;48.658;2.328;2022-09-25T11:47:16;20.20;45.80
72576;DHT22;60613;48.658;2.328;2022-09-25T11:52:38;20.20;45.70
72576;DHT22;60613;48.658;2.328;2022-09-25T12:06:44;20.30;45.80
72576;DHT22;60613;48.658;2.328;2022-09-25T12:09:22;20.30;45.60
72576;DHT22;60613;48.658;2.328;2022-09-25T12:12:04;20.30;45.60
72576;DHT22;60613;48.658;2.328;2022-09-25T12:19:56;20.30;45.60
72576;DHT22;60613;48.658;2.328;2022-09-25T12:31:02;20.30;45.60
72576;DHT22;60613;48.658;2.328;2022-09-25T12:33:30;20.30;45.60
72576;DHT22;60613;48.658;2.328;2022-09-25T12:36:07;20.30;45.60
72576;DHT22;60613;48.658;2.328;2022-09-25T12:38:46;20.30;45.60
72576;DHT22;60613;48.658;2.328;2022-09-25T12:41:33;20.30;45.60
72576;DHT22;60613;48.658;2.328;2022-09-25T12:46:46;20.30;45.70
72576;DHT22;60613;48.658;2.328;2022-09-25T12:49:22;20.30;45.60
72576;DHT22;60613;48.658;2.328;2022-09-25T12:51:51;20.30;45.60
72576;DHT22;60613;48.658;2.328;2022-09-25T12:59:38;20.30;45.60
72576;DHT22;60613;48.658;2.328;2022-09-25T13:13:18;20.30;45.80
72576;DHT22;60613;48.658;2.328;2022-09-25T13:15:51;20.30;45.70
72576;DHT22;60613;48.658;2.328;2022-09-25T13:18:20;20.30;45.80
72576;DHT22;60613;48.658;2.328;2022-09-25T13:23:34;20.20;45.80
72576;DHT22;60613;48.658;2.328;2022-09-25T13:26:13;20.20;45.80
72576;DHT22;60613;48.658;2.328;2022-09-25T13:28:48;20.30;45.80
72576;DHT22;60613;48.658;2.328;2022-09-25T13:31:27;20.30;45.80
72576;DHT22;60613;48.658;2.328;2022-09-25T13:34:10;20.30;45.80
72576;DHT22;60613;48.658;2.328;2022-09-25T13:42:11;20.30;45.70
72576;DHT22;60613;48.658;2.328;2022-09-25T13:53:47;20.30;45.70
72576;DHT22;60613;48.658;2.328;2022-09-25T13:58:25;20.40;45.80
72576;DHT22;60613;48.658;2.328;2022-09-25T14:00:55;20.40;45.60
72576;DHT22;60613;48.658;2.328;2022-09-25T14:03:41;20.40;45.60
72576;DHT22;60613;48.658;2.328;2022-09-25T14:06:23;20.40;45.60
72576;DHT22;60613;48.658;2.328;2022-09-25T14:08:53;20.40;45.60
72576;DHT22;60613;48.658;2.328;2022-09-25T14:11:32;20.40;45.60
72576;DHT22;60613;48.658;2.328;2022-09-25T14:14:01;20.40;45.50
72576;DHT22;60613;48.658;2.328;2022-09-25T14:16:32;20.40;45.50
72576;DHT22;60613;48.658;2.328;2022-09-25T14:19:00;20.40;45.50
72576;DHT22;60613;48.658;2.328;2022-09-25T14:21:27;20.40;45.40
72576;DHT22;60613;48.658;2.328;2022-09-25T14:23:56;20.40;45.40
72576;DHT22;60613;48.658;2.328;2022-09-25T14:26:27;20.40;45.40
72576;DHT22;60613;48.658;2.328;2022-09-25T14:39:39;20.50;45.30
72576;DHT22;60613;48.658;2.328;2022-09-25T14:45:37;20.50;45.30
72576;DHT22;60613;48.658;2.328;2022-09-25T14:48:12;20.50;45.30
72576;DHT22;60613;48.658;2.328;2022-09-25T14:50:48;20.50;45.20
72576;DHT22;60613;48.658;2.328;2022-09-25T14:53:29;20.50;45.20
72576;DHT22;60613;48.658;2.328;2022-09-25T14:55:56;20.50;45.30
72576;DHT22;60613;48.658;2.328;2022-09-25T14:58:27;20.50;45.30
72576;DHT22;60613;48.658;2.328;2022-09-25T15:00:57;20.50;45.30
72576;DHT22;60613;48.658;2.328;2022-09-25T15:03:27;20.50;45.20
72576;DHT22;60613;48.658;2.328;2022-09-25T15:05:58;20.50;45.20
72576;DHT22;60613;48.658;2.328;2022-09-25T15:08:37;20.50;45.20
72576;DHT22;60613;48.658;2.328;2022-09-25T15:11:14;20.50;45.20
72576;DHT22;60613;48.658;2.328;2022-09-25T15:13:41;20.50;45.10
72576;DHT22;60613;48.658;2.328;2022-09-25T15:16:14;20.60;45.30
72576;DHT22;60613;48.658;2.328;2022-09-25T15:19:01;20.50;45.10
72576;DHT22;60613;48.658;2.328;2022-09-25T15:21:32;20.60;45.20
72576;DHT22;60613;48.658;2.328;2022-09-25T15:24:04;20.60;45.10
72576;DHT22;60613;48.658;2.328;2022-09-25T15:26:32;20.60;45.20
72576;DHT22;60613;48.658;2.328;2022-09-25T15:29:09;20.60;45.20
72576;DHT22;60613;48.658;2.328;2022-09-25T15:31:37;20.60;45.20
72576;DHT22;60613;48.658;2.328;2022-09-25T15:34:12;20.60;45.20
72576;DHT22;60613;48.658;2.328;2022-09-25T15:36:38;20.60;45.20
72576;DHT22;60613;48.658;2.328;2022-09-25T15:39:16;20.60;45.20
72576;DHT22;60613;48.658;2.328;2022-09-25T15:41:43;20.60;45.20
72576;DHT22;60613;48.658;2.328;2022-09-25T15:44:24;20.60;45.20
72576;DHT22;60613;48.658;2.328;2022-09-25T15:46:52;20.60;45.20
72576;DHT22;60613;48.658;2.328;2022-09-25T15:49:23;20.60;45.10
72576;DHT22;60613;48.658;2.328;2022-09-25T15:51:53;20.60;46.20
72576;DHT22;60613;48.658;2.328;2022-09-25T15:54:28;20.60;45.10
72576;DHT22;60613;48.658;2.328;2022-09-25T15:56:56;20.60;45.10
72576;DHT22;60613;48.658;2.328;2022-09-25T15:59:48;20.60;45.10
72576;DHT22;60613;48.658;2.328;2022-09-25T16:02:45;20.60;45.00
72576;DHT22;60613;48.658;2.328;2022-09-25T16:05:50;20.60;45.00
72576;DHT22;60613;48.658;2.328;2022-09-25T16:08:31;20.70;45.10
72576;DHT22;60613;48.658;2.328;2022-09-25T16:11:24;20.60;45.00
72576;DHT22;60613;48.658;2.328;2022-09-25T16:14:15;20.70;45.00
72576;DHT22;60613;48.658;2.328;2022-09-25T16:16:45;20.70;45.10
72576;DHT22;60613;48.658;2.328;2022-09-25T16:21:49;20.70;45.00
72576;DHT22;60613;48.658;2.328;2022-09-25T16:24:24;20.70;45.00
72576;DHT22;60613;48.658;2.328;2022-09-25T16:26:56;20.70;45.00
72576;DHT22;60613;48.658;2.328;2022-09-25T16:29:25;20.70;44.90
72576;DHT22;60613;48.658;2.328;2022-09-25T16:31:51;20.70;44.90
72576;DHT22;60613;48.658;2.328;2022-09-25T16:34:36;20.70;44.90
72576;DHT22;60613;48.658;2.328;2022-09-25T16:37:04;20.70;44.90
72576;DHT22;60613;48.658;2.328;2022-09-25T16:39:38;20.70;44.90
72576;DHT22;60613;48.658;2.328;2022-09-25T16:42:32;20.80;44.90
72576;DHT22;60613;48.658;2.328;2022-09-25T16:47:40;20.70;44.90
72576;DHT22;60613;48.658;2.328;2022-09-25T16:50:11;20.70;44.90
72576;DHT22;60613;48.658;2.328;2022-09-25T16:52:37;20.70;44.90
72576;DHT22;60613;48.658;2.328;2022-09-25T16:55:06;20.70;44.90
72576;DHT22;60613;48.658;2.328;2022-09-25T16:57:34;20.70;44.90
72576;DHT22;60613;48.658;2.328;2022-09-25T17:00:01;20.80;44.90
72576;DHT22;60613;48.658;2.328;2022-09-25T17:02:32;20.80;44.90
72576;DHT22;60613;48.658;2.328;2022-09-25T17:05:07;20.80;44.90
72576;DHT22;60613;48.658;2.328;2022-09-25T17:07:33;20.80;44.90
72576;DHT22;60613;48.658;2.328;2022-09-25T17:09:59;20.80;44.90
72576;DHT22;60613;48.658;2.328;2022-09-25T17:12:26;20.80;44.90
72576;DHT22;60613;48.658;2.328;2022-09-25T17:14:53;20.80;44.90
72576;DHT22;60613;48.658;2.328;2022-09-25T17:17:20;20.80;44.90
72576;DHT22;60613;48.658;2.328;2022-09-25T17:19:47;20.80;45.00
72576;DHT22;60613;48.658;2.328;2022-09-25T17:22:13;20.80;46.10
72576;DHT22;60613;48.658;2.328;2022-09-25T17:24:38;20.80;44.90
72576;DHT22;60613;48.658;2.328;2022-09-25T17:27:15;20.80;44.80
72576;DHT22;60613;48.658;2.328;2022-09-25T17:29:41;20.80;44.90
72576;DHT22;60613;48.658;2.328;2022-09-25T17:32:14;20.80;44.90
72576;DHT22;60613;48.658;2.328;2022-09-25T17:34:44;20.80;45.00
72576;DHT22;60613;48.658;2.328;2022-09-25T17:37:10;20.80;44.90
72576;DHT22;60613;48.658;2.328;2022-09-25T17:39:37;20.80;45.00
72576;DHT22;60613;48.658;2.328;2022-09-25T17:42:02;20.80;44.90
72576;DHT22;60613;48.658;2.328;2022-09-25T17:44:28;20.80;45.10
72576;DHT22;60613;48.658;2.328;2022-09-25T17:46:54;20.80;44.90
72576;DHT22;60613;48.658;2.328;2022-09-25T17:49:21;20.80;44.90
72576;DHT22;60613;48.658;2.328;2022-09-25T17:51:48;20.80;44.90
72576;DHT22;60613;48.658;2.328;2022-09-25T17:54:13;20.80;44.90
72576;DHT22;60613;48.658;2.328;2022-09-25T17:56:40;20.80;44.90
72576;DHT22;60613;48.658;2.328;2022-09-25T17:59:09;20.80;44.90
72576;DHT22;60613;48.658;2.328;2022-09-25T18:01:35;20.80;44.90
72576;DHT22;60613;48.658;2.328;2022-09-25T18:04:06;20.80;44.90
72576;DHT22;60613;48.658;2.328;2022-09-25T18:06:37;20.80;45.00
72576;DHT22;60613;48.658;2.328;2022-09-25T18:09:02;20.80;45.00
72576;DHT22;60613;48.658;2.328;2022-09-25T18:11:28;20.80;44.90
72576;DHT22;60613;48.658;2.328;2022-09-25T18:13:55;20.80;44.90
72576;DHT22;60613;48.658;2.328;2022-09-25T18:16:30;20.80;44.90
72576;DHT22;60613;48.658;2.328;2022-09-25T18:18:57;20.80;45.00
72576;DHT22;60613;48.658;2.328;2022-09-25T18:21:41;20.80;45.00
72576;DHT22;60613;48.658;2.328;2022-09-25T18:24:25;20.80;46.10
72576;DHT22;60613;48.658;2.328;2022-09-25T18:26:53;20.80;45.00
72576;DHT22;60613;48.658;2.328;2022-09-25T18:29:20;20.80;45.10
72576;DHT22;60613;48.658;2.328;2022-09-25T18:31:46;20.80;45.00